Time;durP1;ratioP1;P1;durP2;ratioP2;P2;SDS_P1;SDS_P2;PMS_P1;PMS_P2;Temp;Humidity;BMP_temperature;BMP_pressure;BME280_temperature;BME280_humidity;BME280_pressure;Samples;Min_cycle;Max_cycle;Signal;HPM_P1;HPM_P2
2024/01/04 00:00:31;;;;;;;9.67;6.10;;;7.30;99.90;;;;;;5032504;28;20585;-77
2024/01/04 00:03:19;;;;;;;15.50;6.67;;;7.30;99.90;;;;;;5031513;28;20199;-77
2024/01/04 00:06:07;;;;;;;12.50;6.13;;;7.30;99.90;;;;;;5033432;28;20710;-77
2024/01/04 00:08:55;;;;;;;17.37;6.60;;;7.30;99.90;;;;;;5033012;28;20253;-77
2024/01/04 00:11:43;;;;;;;10.87;5.70;;;7.30;99.90;;;;;;5032238;28;20229;-77
2024/01/04 00:14:30;;;;;;;9.07;5.23;;;7.40;99.90;;;;;;5032597;28;20215;-77
2024/01/04 00:17:18;;;;;;;11.93;5.63;;;7.30;99.90;;;;;;5032329;28;20194;-77
2024/01/04 00:20:06;;;;;;;9.53;5.00;;;7.30;99.90;;;;;;5032390;28;20218;-77
2024/01/04 00:22:54;;;;;;;10.20;5.00;;;7.30;99.90;;;;;;5032539;28;20250;-78
2024/01/04 00:25:41;;;;;;;10.50;5.00;;;7.30;99.90;;;;;;5032135;28;20200;-76
2024/01/04 00:28:29;;;;;;;9.43;4.80;;;7.30;99.90;;;;;;5032272;28;20597;-76
2024/01/04 00:31:16;;;;;;;9.40;5.03;;;7.40;99.90;;;;;;5031654;28;21198;-78
2024/01/04 00:34:06;;;;;;;9.27;4.93;;;7.40;99.90;;;;;;5031554;28;20266;-77
2024/01/04 00:36:54;;;;;;;10.23;4.70;;;7.40;99.90;;;;;;5032577;28;20667;-77
2024/01/04 00:39:41;;;;;;;7.80;4.60;;;7.40;99.90;;;;;;5031601;28;20196;-76
2024/01/04 00:42:28;;;;;;;9.17;5.10;;;7.30;99.90;;;;;;5032046;28;20214;-77
2024/01/04 00:45:16;;;;;;;11.23;4.67;;;7.30;99.90;;;;;;5032521;28;20653;-77
2024/01/04 00:48:03;;;;;;;11.27;5.03;;;7.30;99.90;;;;;;5032001;28;20233;-77
2024/01/04 00:50:51;;;;;;;9.63;4.70;;;7.30;99.90;;;;;;5032234;28;20827;-76
2024/01/04 00:53:38;;;;;;;9.30;4.80;;;7.40;99.90;;;;;;5032121;28;20676;-76
2024/01/04 00:56:34;;;;;;;11.60;4.93;;;7.30;99.90;;;;;;5030937;28;20227;-76
2024/01/04 00:59:21;;;;;;;11.67;4.50;;;7.30;99.90;;;;;;5033133;28;20211;-77
2024/01/04 01:02:09;;;;;;;8.40;5.00;;;7.30;99.90;;;;;;5031854;28;20236;-76
2024/01/04 01:04:56;;;;;;;6.77;4.40;;;7.20;99.90;;;;;;5031820;28;20271;-77
2024/01/04 01:07:43;;;;;;;9.33;4.33;;;7.30;99.90;;;;;;5033373;28;20213;-77
2024/01/04 01:10:32;;;;;;;8.77;4.90;;;7.30;99.90;;;;;;5034157;28;20204;-77
2024/01/04 01:13:22;;;;;;;8.20;4.50;;;7.30;99.90;;;;;;5036442;28;20302;-77
2024/01/04 01:16:10;;;;;;;9.20;4.67;;;7.30;99.90;;;;;;5035017;28;20679;-77
2024/01/04 01:18:57;;;;;;;8.97;4.73;;;7.30;99.90;;;;;;5035648;28;20207;-77
2024/01/04 01:21:45;;;;;;;8.47;4.27;;;7.30;99.90;;;;;;5035367;28;20220;-77
2024/01/04 01:24:32;;;;;;;8.30;4.70;;;7.30;99.90;;;;;;5034510;28;20268;-77
2024/01/04 01:27:21;;;;;;;9.80;4.77;;;7.30;99.90;;;;;;5036450;28;20212;-77
2024/01/04 01:30:09;;;;;;;8.43;4.63;;;7.30;99.90;;;;;;5035333;28;20196;-77
2024/01/04 01:32:56;;;;;;;12.27;4.60;;;7.30;99.90;;;;;;5035589;28;20283;-76
2024/01/04 01:35:44;;;;;;;8.13;4.57;;;7.30;99.90;;;;;;5035242;28;20576;-76
2024/01/04 01:38:32;;;;;;;7.27;4.77;;;7.30;99.90;;;;;;5034768;28;20193;-76
2024/01/04 01:41:20;;;;;;;9.07;4.70;;;7.40;99.90;;;;;;5034602;28;20228;-77
2024/01/04 01:44:07;;;;;;;7.83;4.30;;;7.40;99.90;;;;;;5035633;28;20247;-77
2024/01/04 01:46:55;;;;;;;7.10;3.67;;;7.40;99.90;;;;;;5033067;28;20203;-77
2024/01/04 01:49:42;;;;;;;7.63;4.00;;;7.30;99.90;;;;;;5035598;28;20202;-77
2024/01/04 01:52:29;;;;;;;9.23;3.97;;;7.30;99.90;;;;;;5034004;28;20574;-77
2024/01/04 01:55:19;;;;;;;8.67;3.97;;;7.40;99.90;;;;;;5034919;28;20199;-77
2024/01/04 01:58:06;;;;;;;7.73;3.93;;;7.40;99.90;;;;;;5036011;28;20194;-77
2024/01/04 02:00:54;;;;;;;7.63;3.90;;;7.40;99.90;;;;;;5034846;28;20247;-77
2024/01/04 02:03:42;;;;;;;6.37;4.00;;;7.40;99.90;;;;;;5034259;28;20204;-77
2024/01/04 02:06:30;;;;;;;9.07;4.07;;;7.30;99.90;;;;;;5032795;28;20234;-77
2024/01/04 02:09:17;;;;;;;6.67;3.53;;;7.30;99.90;;;;;;5035811;28;20199;-77
2024/01/04 02:12:06;;;;;;;7.23;3.90;;;7.30;99.90;;;;;;5033796;28;20673;-78
2024/01/04 02:14:54;;;;;;;6.73;3.73;;;7.30;99.90;;;;;;5035823;28;20197;-77
2024/01/04 02:17:42;;;;;;;8.77;3.83;;;7.30;99.90;;;;;;5034041;28;20219;-78
2024/01/04 02:20:29;;;;;;;6.37;3.73;;;7.30;99.90;;;;;;5033381;28;20203;-77
2024/01/04 02:23:17;;;;;;;6.33;3.60;;;7.30;99.90;;;;;;5034410;28;20200;-77
2024/01/04 02:26:04;;;;;;;6.23;3.33;;;7.30;99.90;;;;;;5034280;28;20217;-77
2024/01/04 02:28:52;;;;;;;8.10;3.70;;;7.30;99.90;;;;;;5034247;28;20241;-77
2024/01/04 02:31:39;;;;;;;6.70;3.67;;;7.30;99.90;;;;;;5034220;28;20654;-77
2024/01/04 02:34:27;;;;;;;8.10;3.70;;;7.20;99.90;;;;;;5033318;28;20238;-77
2024/01/04 02:37:15;;;;;;;9.33;4.10;;;7.20;99.90;;;;;;5033298;28;20208;-77
2024/01/04 02:40:03;;;;;;;9.43;4.00;;;7.20;99.90;;;;;;5034792;28;20209;-77
2024/01/04 02:42:50;;;;;;;6.80;3.70;;;7.20;99.90;;;;;;5034113;28;20755;-77
2024/01/04 02:45:38;;;;;;;8.73;4.47;;;7.10;99.90;;;;;;5034491;28;20272;-77
2024/01/04 02:48:25;;;;;;;7.80;4.47;;;7.10;99.90;;;;;;5033906;28;20194;-77
2024/01/04 02:51:13;;;;;;;9.00;4.40;;;7.20;99.90;;;;;;5033320;28;20567;-77
2024/01/04 02:54:00;;;;;;;7.23;4.43;;;7.10;99.90;;;;;;5034387;28;20201;-77
2024/01/04 02:56:47;;;;;;;9.83;4.80;;;7.10;99.90;;;;;;5033723;28;20678;-77
2024/01/04 02:59:35;;;;;;;8.93;4.50;;;7.10;99.90;;;;;;5033989;28;20207;-77
2024/01/04 03:02:23;;;;;;;15.23;4.47;;;7.10;99.90;;;;;;5033200;28;20587;-78
2024/01/04 03:05:10;;;;;;;9.43;4.57;;;7.00;99.90;;;;;;5033378;28;20199;-76
2024/01/04 03:07:58;;;;;;;7.10;4.07;;;7.00;99.90;;;;;;5033503;28;20200;-77
2024/01/04 03:10:46;;;;;;;8.37;3.90;;;7.00;99.90;;;;;;5033418;28;20197;-77
2024/01/04 03:13:33;;;;;;;8.63;4.40;;;7.00;99.90;;;;;;5033361;28;20281;-76
2024/01/04 03:16:21;;;;;;;6.60;3.90;;;7.00;99.90;;;;;;5032803;28;20670;-77
2024/01/04 03:19:08;;;;;;;7.27;4.00;;;7.00;99.90;;;;;;5033927;28;20287;-77
2024/01/04 03:21:56;;;;;;;6.77;3.90;;;7.00;99.90;;;;;;5033532;28;20220;-77
2024/01/04 03:24:43;;;;;;;7.03;3.60;;;7.00;99.90;;;;;;5033748;28;20642;-78
2024/01/04 03:27:31;;;;;;;6.83;3.50;;;7.00;99.90;;;;;;5033383;28;20288;-77
2024/01/04 03:30:19;;;;;;;5.03;3.17;;;7.00;99.90;;;;;;5033379;28;20281;-76
2024/01/04 03:33:07;;;;;;;7.83;3.67;;;7.00;99.90;;;;;;5033503;28;20282;-77
2024/01/04 03:35:54;;;;;;;7.87;4.07;;;7.00;99.90;;;;;;5032444;28;20200;-77
2024/01/04 03:38:42;;;;;;;6.37;3.27;;;7.00;99.90;;;;;;5032981;28;20725;-76
2024/01/04 03:41:30;;;;;;;7.83;3.50;;;7.00;99.90;;;;;;5032791;28;20230;-77
2024/01/04 03:44:17;;;;;;;5.57;3.10;;;7.00;99.90;;;;;;5031943;28;20671;-77
2024/01/04 03:47:05;;;;;;;5.63;3.07;;;7.00;99.90;;;;;;5032478;28;20203;-76
2024/01/04 03:49:52;;;;;;;5.90;3.37;;;6.90;99.90;;;;;;5032829;28;20196;-77
2024/01/04 03:52:40;;;;;;;7.93;3.27;;;7.00;99.90;;;;;;5032660;28;20249;-76
2024/01/04 03:55:27;;;;;;;5.87;3.30;;;6.90;99.90;;;;;;5032735;28;20673;-76
2024/01/04 03:58:15;;;;;;;6.10;2.80;;;6.90;99.90;;;;;;5031662;28;20200;-76
2024/01/04 04:01:02;;;;;;;4.53;2.80;;;6.90;99.90;;;;;;5032684;28;20585;-76
2024/01/04 04:03:50;;;;;;;6.07;3.20;;;7.00;99.90;;;;;;5032570;28;20189;-76
2024/01/04 04:06:38;;;;;;;5.73;3.07;;;6.90;99.90;;;;;;5033047;28;20262;-76
2024/01/04 04:09:26;;;;;;;4.80;2.57;;;6.90;99.90;;;;;;5032462;28;20276;-77
2024/01/04 04:12:13;;;;;;;6.43;2.80;;;6.90;99.90;;;;;;5031421;28;20235;-77
2024/01/04 04:15:01;;;;;;;4.80;2.73;;;6.90;99.90;;;;;;5031822;28;20189;-76
2024/01/04 04:17:55;;;;;;;4.90;2.97;;;6.90;99.90;;;;;;5032811;28;20273;-77
2024/01/04 04:20:42;;;;;;;4.93;3.00;;;6.90;99.90;;;;;;5031323;28;20197;-76
2024/01/04 04:23:31;;;;;;;6.67;2.97;;;6.90;99.90;;;;;;5032429;28;20338;-77
2024/01/04 04:26:20;;;;;;;5.83;3.40;;;6.90;99.90;;;;;;5032291;28;20215;-76
2024/01/04 04:29:08;;;;;;;6.77;3.20;;;6.80;99.90;;;;;;5030104;28;20191;-77
2024/01/04 04:31:55;;;;;;;5.43;3.00;;;6.90;99.90;;;;;;5031282;28;20282;-76
2024/01/04 04:34:43;;;;;;;7.60;3.50;;;6.80;99.90;;;;;;5032291;28;20776;-77
2024/01/04 04:37:30;;;;;;;6.07;3.53;;;6.90;99.90;;;;;;5031199;28;20677;-77
2024/01/04 04:40:17;;;;;;;5.83;3.37;;;6.90;99.90;;;;;;5032369;28;20196;-76
2024/01/04 04:43:05;;;;;;;5.30;3.50;;;6.90;99.90;;;;;;5034218;28;20701;-77
2024/01/04 04:45:52;;;;;;;8.53;3.77;;;6.90;99.90;;;;;;5036795;28;20278;-77
2024/01/04 04:48:40;;;;;;;6.77;3.50;;;6.90;99.90;;;;;;5035137;28;20201;-77
2024/01/04 04:51:28;;;;;;;6.33;3.40;;;6.90;99.90;;;;;;5036606;28;20195;-77
2024/01/04 04:54:16;;;;;;;5.70;3.40;;;6.90;99.90;;;;;;5035405;28;20209;-77
2024/01/04 04:57:05;;;;;;;7.60;3.90;;;6.90;99.90;;;;;;5034970;28;20301;-77
2024/01/04 04:59:53;;;;;;;5.27;3.70;;;6.90;99.90;;;;;;5035794;28;20199;-77
2024/01/04 05:02:40;;;;;;;7.67;4.27;;;6.90;99.90;;;;;;5033609;28;20215;-77
2024/01/04 05:05:28;;;;;;;7.57;4.03;;;6.90;99.90;;;;;;5035618;28;20234;-77
2024/01/04 05:08:16;;;;;;;7.30;4.20;;;6.90;99.90;;;;;;5035959;28;20198;-77
2024/01/04 05:11:06;;;;;;;8.80;3.83;;;6.90;99.90;;;;;;5035664;28;20219;-77
2024/01/04 05:13:53;;;;;;;10.03;4.30;;;6.90;99.90;;;;;;5036867;28;20568;-77
2024/01/04 05:16:41;;;;;;;6.67;4.13;;;6.90;99.90;;;;;;5035115;28;20336;-76
2024/01/04 05:19:28;;;;;;;8.70;4.60;;;6.90;99.90;;;;;;5036903;28;20257;-76
2024/01/04 05:22:17;;;;;;;7.00;4.40;;;6.90;99.90;;;;;;5035385;28;20306;-76
2024/01/04 05:25:05;;;;;;;11.23;4.40;;;6.90;99.90;;;;;;5035450;28;20222;-76
2024/01/04 05:27:52;;;;;;;7.20;4.53;;;6.90;99.90;;;;;;5035951;28;20270;-76
2024/01/04 05:30:40;;;;;;;7.50;4.37;;;6.90;99.90;;;;;;5034371;28;20198;-77
2024/01/04 05:33:28;;;;;;;8.07;4.57;;;6.90;99.90;;;;;;5035348;28;20199;-77
2024/01/04 05:36:15;;;;;;;8.80;4.70;;;6.90;99.90;;;;;;5034314;28;20222;-77
2024/01/04 05:39:03;;;;;;;7.77;4.70;;;6.90;99.90;;;;;;5035271;28;20321;-77
2024/01/04 05:41:50;;;;;;;9.37;4.97;;;6.80;99.90;;;;;;5034049;28;20227;-77
2024/01/04 05:44:38;;;;;;;8.83;5.13;;;6.90;99.90;;;;;;5035123;28;20225;-76
2024/01/04 05:47:25;;;;;;;9.87;5.10;;;6.90;99.90;;;;;;5034446;28;20198;-76
2024/01/04 05:50:12;;;;;;;8.93;4.87;;;6.80;99.90;;;;;;5035560;28;20656;-77
2024/01/04 05:53:00;;;;;;;7.93;5.20;;;6.80;99.90;;;;;;5035017;28;20578;-77
2024/01/04 05:55:47;;;;;;;8.77;5.10;;;6.90;99.90;;;;;;5034191;28;20191;-76
2024/01/04 05:58:34;;;;;;;9.93;5.47;;;6.90;99.90;;;;;;5034884;28;20667;-76
2024/01/04 06:01:22;;;;;;;9.33;4.90;;;6.80;99.90;;;;;;5034783;28;20358;-77
2024/01/04 06:04:09;;;;;;;9.13;5.60;;;6.80;99.90;;;;;;5034169;28;20208;-77
2024/01/04 06:06:56;;;;;;;8.93;5.33;;;6.90;99.90;;;;;;5034132;28;20673;-77
2024/01/04 06:09:44;;;;;;;7.37;4.67;;;6.80;99.90;;;;;;5035714;28;20323;-77
2024/01/04 06:12:31;;;;;;;11.47;5.60;;;6.80;99.90;;;;;;5035990;28;20301;-76
2024/01/04 06:15:19;;;;;;;10.20;5.13;;;6.80;99.90;;;;;;5035060;28;20205;-77
2024/01/04 06:18:08;;;;;;;8.37;5.10;;;6.80;99.90;;;;;;5035683;28;20206;-76
2024/01/04 06:20:55;;;;;;;8.73;5.03;;;6.80;99.90;;;;;;5034783;28;20207;-76
2024/01/04 06:23:43;;;;;;;9.17;5.27;;;6.80;99.90;;;;;;5033391;28;20194;-76
2024/01/04 06:26:30;;;;;;;9.93;5.37;;;6.80;99.90;;;;;;5033693;28;20301;-76
2024/01/04 06:29:19;;;;;;;10.73;5.03;;;6.70;99.90;;;;;;5033674;28;20193;-76
2024/01/04 06:32:08;;;;;;;9.50;5.60;;;6.80;99.90;;;;;;5033542;28;20257;-76
2024/01/04 06:34:55;;;;;;;9.93;6.00;;;6.70;99.90;;;;;;5033539;28;20209;-76
2024/01/04 06:37:42;;;;;;;11.10;5.57;;;6.70;99.90;;;;;;5034134;28;20189;-76
2024/01/04 06:40:29;;;;;;;8.60;5.57;;;6.70;99.90;;;;;;5034014;28;20214;-76
2024/01/04 06:43:17;;;;;;;10.97;5.63;;;6.70;99.90;;;;;;5034137;28;20211;-76
2024/01/04 06:46:04;;;;;;;12.13;5.87;;;6.70;99.90;;;;;;5032917;28;20339;-76
2024/01/04 06:48:52;;;;;;;9.30;5.40;;;6.80;99.90;;;;;;5033480;28;20313;-76
2024/01/04 06:51:39;;;;;;;9.57;5.63;;;6.80;99.90;;;;;;5034418;28;20637;-76
2024/01/04 06:54:27;;;;;;;8.40;5.27;;;6.80;99.90;;;;;;5033694;28;20599;-76
2024/01/04 06:57:14;;;;;;;8.67;5.40;;;6.80;99.90;;;;;;5033285;28;20213;-75
2024/01/04 07:00:02;;;;;;;9.87;5.23;;;6.80;99.90;;;;;;5032687;28;20652;-75
2024/01/04 07:02:49;;;;;;;10.17;5.20;;;6.80;99.90;;;;;;5035266;28;20224;-76
2024/01/04 07:05:37;;;;;;;8.17;4.70;;;6.90;99.90;;;;;;5034050;28;20224;-76
2024/01/04 07:08:24;;;;;;;9.90;5.23;;;6.90;99.90;;;;;;5034759;28;20190;-77
2024/01/04 07:11:11;;;;;;;13.10;5.70;;;6.90;99.90;;;;;;5033721;28;20304;-76
2024/01/04 07:13:59;;;;;;;9.63;5.40;;;6.90;99.90;;;;;;5033928;28;20210;-77
2024/01/04 07:16:47;;;;;;;10.33;5.30;;;6.90;99.90;;;;;;5034118;28;20242;-75
2024/01/04 07:19:34;;;;;;;9.07;5.13;;;6.90;99.90;;;;;;5035742;28;20670;-75
2024/01/04 07:22:22;;;;;;;8.20;5.17;;;6.90;99.90;;;;;;5037770;28;20223;-76
2024/01/04 07:25:09;;;;;;;8.00;5.13;;;7.00;99.90;;;;;;5037164;28;20197;-77
2024/01/04 07:27:57;;;;;;;9.37;5.47;;;6.90;99.90;;;;;;5036781;28;20217;-76
2024/01/04 07:30:44;;;;;;;11.30;5.93;;;6.90;99.90;;;;;;5034632;28;20337;-76
2024/01/04 07:33:31;;;;;;;13.17;6.57;;;6.90;99.90;;;;;;5034259;28;20194;-77
2024/01/04 07:36:19;;;;;;;11.47;6.00;;;6.90;99.90;;;;;;5033086;28;20209;-77
2024/01/04 07:39:06;;;;;;;8.83;5.90;;;6.90;99.90;;;;;;5033291;28;20281;-75
2024/01/04 07:41:53;;;;;;;12.80;6.17;;;6.90;99.90;;;;;;5032613;28;20244;-76
2024/01/04 07:44:41;;;;;;;9.33;5.93;;;6.90;99.90;;;;;;5032366;28;20208;-78
2024/01/04 07:47:43;;;;;;;13.40;6.60;;;6.80;99.90;;;;;;5031584;28;20257;-76
2024/01/04 07:50:31;;;;;;;9.70;6.17;;;6.90;99.90;;;;;;5032885;28;20213;-80
2024/01/04 07:53:18;;;;;;;11.10;6.27;;;6.90;99.90;;;;;;5034218;28;20221;-75
2024/01/04 07:56:06;;;;;;;9.17;6.40;;;6.90;99.90;;;;;;5031675;28;20516;-83
2024/01/04 07:58:54;;;;;;;13.63;6.70;;;6.90;99.90;;;;;;5031805;28;20224;-75
2024/01/04 08:01:41;;;;;;;11.03;6.50;;;6.90;99.90;;;;;;5032491;28;20317;-74
2024/01/04 08:04:28;;;;;;;12.10;6.50;;;6.90;99.90;;;;;;5032656;28;20193;-74
2024/01/04 08:07:16;;;;;;;13.43;6.60;;;7.00;99.90;;;;;;5032424;28;20247;-74
2024/01/04 08:10:04;;;;;;;11.77;6.63;;;7.00;99.90;;;;;;5032496;28;20197;-73
2024/01/04 08:12:51;;;;;;;20.63;7.03;;;7.00;99.90;;;;;;5032389;28;20557;-74
2024/01/04 08:15:39;;;;;;;16.03;7.40;;;7.00;99.90;;;;;;5032508;28;20196;-74
2024/01/04 08:18:26;;;;;;;11.37;6.30;;;7.00;99.90;;;;;;5031461;28;20249;-74
2024/01/04 08:21:14;;;;;;;14.27;6.80;;;7.00;99.90;;;;;;5032203;28;20228;-74
2024/01/04 08:24:03;;;;;;;11.37;6.47;;;7.10;99.90;;;;;;5032115;28;20235;-74
2024/01/04 08:26:50;;;;;;;12.83;7.03;;;7.00;99.90;;;;;;5032129;28;20225;-73
2024/01/04 08:29:38;;;;;;;10.57;6.63;;;7.00;99.90;;;;;;5031177;28;20194;-74
2024/01/04 08:32:25;;;;;;;14.03;7.40;;;7.00;99.90;;;;;;5032393;28;20196;-74
2024/01/04 08:35:13;;;;;;;11.87;6.50;;;7.10;99.90;;;;;;5031702;28;20199;-73
2024/01/04 08:38:00;;;;;;;11.97;6.90;;;7.00;99.90;;;;;;5031750;28;20196;-74
2024/01/04 08:40:47;;;;;;;10.90;5.90;;;7.00;99.90;;;;;;5032358;28;20245;-74
2024/01/04 08:43:34;;;;;;;9.13;5.60;;;7.00;99.90;;;;;;5032651;28;20279;-74
2024/01/04 08:46:22;;;;;;;12.63;6.73;;;7.10;99.90;;;;;;5031142;28;20208;-73
2024/01/04 08:49:09;;;;;;;9.57;6.17;;;7.10;99.90;;;;;;5032142;28;20201;-74
2024/01/04 08:51:57;;;;;;;14.10;6.80;;;7.10;99.90;;;;;;5030510;28;20199;-73
2024/01/04 08:54:44;;;;;;;11.73;6.27;;;7.10;99.90;;;;;;5032109;28;20198;-73
2024/01/04 08:57:32;;;;;;;9.97;6.50;;;7.10;99.90;;;;;;5031036;28;20213;-73
2024/01/04 09:00:20;;;;;;;9.13;5.73;;;7.10;99.90;;;;;;5031676;28;20198;-74
2024/01/04 09:03:07;;;;;;;10.43;6.40;;;7.10;99.90;;;;;;5031907;28;20219;-74
2024/01/04 09:05:55;;;;;;;14.33;6.67;;;7.10;99.90;;;;;;5032950;28;20320;-74
2024/01/04 09:08:42;;;;;;;10.43;6.47;;;7.20;99.90;;;;;;5033090;28;20196;-75
2024/01/04 09:11:29;;;;;;;11.67;6.90;;;7.20;99.90;;;;;;5031604;28;20214;-74
2024/01/04 09:14:17;;;;;;;12.50;6.57;;;7.20;99.90;;;;;;5031402;28;20206;-74
2024/01/04 09:17:04;;;;;;;9.93;6.33;;;7.20;99.90;;;;;;5031515;28;20788;-74
2024/01/04 09:19:52;;;;;;;13.40;6.67;;;7.20;99.90;;;;;;5032981;28;20282;-74
2024/01/04 09:22:40;;;;;;;12.53;6.67;;;7.20;99.90;;;;;;5032313;28;20751;-74
2024/01/04 09:25:27;;;;;;;8.93;6.17;;;7.30;99.90;;;;;;5031435;28;20202;-74
2024/01/04 09:28:15;;;;;;;12.63;6.60;;;7.30;99.90;;;;;;5031778;28;20202;-77
2024/01/04 09:31:03;;;;;;;9.57;6.30;;;7.30;99.90;;;;;;5035085;28;20275;-77
2024/01/04 09:33:50;;;;;;;9.73;6.10;;;7.30;99.90;;;;;;5034302;28;20240;-74
2024/01/04 09:36:38;;;;;;;8.90;6.17;;;7.30;99.90;;;;;;5035812;28;20214;-79
2024/01/04 09:39:25;;;;;;;10.63;6.60;;;7.40;99.90;;;;;;5035844;28;20568;-75
2024/01/04 09:42:15;;;;;;;10.60;6.60;;;7.30;99.90;;;;;;5034452;28;20340;-78
2024/01/04 09:45:06;;;;;;;11.33;6.40;;;7.30;99.90;;;;;;5035127;28;20688;-77
2024/01/04 09:47:56;;;;;;;9.60;6.10;;;7.40;99.90;;;;;;5034512;28;20672;-77
2024/01/04 09:50:45;;;;;;;12.90;6.40;;;7.30;99.90;;;;;;5034446;28;20193;-78
2024/01/04 09:53:32;;;;;;;11.03;6.23;;;7.50;99.90;;;;;;5035266;28;20193;-77
2024/01/04 09:56:25;;;;;;;9.50;6.03;;;7.40;99.90;;;;;;5034340;28;20301;-75
2024/01/04 09:59:13;;;;;;;11.33;6.20;;;7.50;99.90;;;;;;5034909;28;20209;-76
2024/01/04 10:02:03;;;;;;;9.50;6.20;;;7.50;99.90;;;;;;5033828;28;20271;-78
2024/01/04 10:04:51;;;;;;;10.47;5.73;;;7.50;99.90;;;;;;5035876;28;20205;-75
2024/01/04 10:07:48;;;;;;;9.70;5.57;;;7.50;99.90;;;;;;5035365;28;20198;-78
2024/01/04 10:10:40;;;;;;;10.17;6.43;;;7.50;99.90;;;;;;5034428;28;20198;-78
2024/01/04 10:13:29;;;;;;;9.20;5.97;;;7.50;99.90;;;;;;5033195;28;20194;-75
2024/01/04 10:16:16;;;;;;;10.60;6.50;;;7.50;99.90;;;;;;5035277;28;20296;-74
2024/01/04 10:19:04;;;;;;;9.17;5.73;;;7.50;99.90;;;;;;5035195;28;20197;-71
2024/01/04 10:21:51;;;;;;;9.57;6.53;;;7.50;99.90;;;;;;5033932;28;20280;-76
2024/01/04 10:24:40;;;;;;;10.93;6.13;;;7.50;99.90;;;;;;5034482;28;20211;-76
2024/01/04 10:27:28;;;;;;;9.87;6.00;;;7.50;99.90;;;;;;5034329;28;20328;-76
2024/01/04 10:30:17;;;;;;;11.23;6.60;;;7.50;99.90;;;;;;5034312;28;20247;-77
2024/01/04 10:33:04;;;;;;;8.87;6.30;;;7.50;99.90;;;;;;5034276;28;20221;-76
2024/01/04 10:35:52;;;;;;;8.47;5.97;;;7.50;99.90;;;;;;5034081;28;20211;-74
2024/01/04 10:38:40;;;;;;;6.73;4.80;;;7.50;99.90;;;;;;5033626;28;20663;-75
2024/01/04 10:41:28;;;;;;;7.40;4.90;;;7.50;99.90;;;;;;5033440;28;20695;-74
2024/01/04 10:44:17;;;;;;;5.87;4.07;;;7.40;99.90;;;;;;5033993;28;21336;-73
2024/01/04 10:47:09;;;;;;;7.20;4.50;;;7.40;99.90;;;;;;5034474;28;20317;-74
2024/01/04 10:50:00;;;;;;;6.07;4.10;;;7.40;99.90;;;;;;5032895;28;20205;-73
2024/01/04 10:52:55;;;;;;;5.63;4.17;;;7.40;99.90;;;;;;5034403;28;20206;-73
2024/01/04 10:55:47;;;;;;;6.17;4.10;;;7.40;99.90;;;;;;5033336;28;20246;-73
2024/01/04 10:58:36;;;;;;;7.77;4.70;;;7.40;99.90;;;;;;5034556;28;20206;-73
2024/01/04 11:01:24;;;;;;;9.90;5.27;;;7.40;99.90;;;;;;5032203;28;20211;-74
2024/01/04 11:04:11;;;;;;;9.53;5.90;;;7.50;99.90;;;;;;5032553;28;20219;-73
2024/01/04 11:07:00;;;;;;;9.90;6.23;;;7.60;99.90;;;;;;5033274;28;20228;-73
2024/01/04 11:09:49;;;;;;;9.87;5.87;;;7.60;99.90;;;;;;5034662;28;20838;-74
2024/01/04 11:12:37;;;;;;;11.87;6.90;;;7.60;99.90;;;;;;5033417;28;20703;-72
2024/01/04 11:15:25;;;;;;;9.87;6.53;;;7.70;99.90;;;;;;5033672;28;20195;-73
2024/01/04 11:18:49;;;;;;;9.70;6.43;;;7.70;99.90;;;;;;5032408;28;20626;-77
2024/01/04 11:21:58;;;;;;;12.47;6.90;;;7.60;99.90;;;;;;5033859;28;20653;-74
2024/01/04 11:24:58;;;;;;;10.53;6.73;;;7.70;99.90;;;;;;5033686;28;20641;-74
2024/01/04 11:27:47;;;;;;;9.30;6.83;;;7.70;99.90;;;;;;5032555;28;20269;-74
2024/01/04 11:30:34;;;;;;;10.40;7.03;;;7.70;99.90;;;;;;5033664;28;20273;-75
2024/01/04 11:33:27;;;;;;;11.33;6.83;;;7.80;99.90;;;;;;5033223;28;20199;-74
2024/01/04 11:36:21;;;;;;;10.80;6.90;;;7.90;99.90;;;;;;5031481;28;20190;-74
2024/01/04 11:39:08;;;;;;;8.83;6.73;;;7.90;99.90;;;;;;5031844;28;20212;-74
2024/01/04 11:41:56;;;;;;;12.00;6.97;;;7.80;99.90;;;;;;5031884;28;20222;-73
2024/01/04 11:44:49;;;;;;;9.87;6.97;;;7.80;99.90;;;;;;5032900;28;20231;-73
2024/01/04 11:47:38;;;;;;;10.13;7.13;;;7.80;99.90;;;;;;5032836;28;20677;-73
2024/01/04 11:50:28;;;;;;;12.03;7.80;;;7.90;99.90;;;;;;5031778;28;20293;-74
2024/01/04 11:53:18;;;;;;;11.30;7.10;;;7.90;99.90;;;;;;5031630;28;20205;-74
2024/01/04 11:56:07;;;;;;;11.57;7.57;;;7.90;99.90;;;;;;5030472;28;20219;-72
2024/01/04 11:59:06;;;;;;;12.77;7.43;;;8.00;99.90;;;;;;5032079;28;20242;-75
2024/01/04 12:01:53;;;;;;;11.53;8.17;;;8.00;99.90;;;;;;5032639;28;20290;-74
2024/01/04 12:04:42;;;;;;;12.60;8.10;;;8.00;99.90;;;;;;5032547;28;20279;-74
2024/01/04 12:07:30;;;;;;;11.70;8.33;;;8.00;99.90;;;;;;5032561;28;20185;-76
2024/01/04 12:10:17;;;;;;;10.40;7.50;;;8.00;99.90;;;;;;5033165;28;20227;-75
2024/01/04 12:13:04;;;;;;;11.80;7.23;;;8.00;99.90;;;;;;5032532;28;20194;-75
2024/01/04 12:15:52;;;;;;;9.67;6.50;;;8.00;99.90;;;;;;5031811;28;20620;-76
2024/01/04 12:18:39;;;;;;;9.80;6.27;;;8.00;99.90;;;;;;5032382;28;20286;-76
2024/01/04 12:21:27;;;;;;;12.33;6.30;;;7.90;99.90;;;;;;5033129;28;20576;-76
2024/01/04 12:24:15;;;;;;;10.50;5.87;;;7.80;99.90;;;;;;5031432;28;20228;-76
2024/01/04 12:27:03;;;;;;;9.03;5.80;;;7.70;99.90;;;;;;5032787;28;20225;-74
2024/01/04 12:29:50;;;;;;;7.73;5.20;;;7.60;99.90;;;;;;5031813;28;20201;-75
2024/01/04 12:32:39;;;;;;;8.57;5.20;;;7.50;99.90;;;;;;5032391;28;20217;-76
2024/01/04 12:35:27;;;;;;;7.93;4.90;;;7.50;99.90;;;;;;5032382;28;20200;-73
2024/01/04 12:38:21;;;;;;;7.77;4.80;;;7.40;99.90;;;;;;5032263;28;20198;-75
2024/01/04 12:41:09;;;;;;;8.37;5.10;;;7.30;99.90;;;;;;5031717;28;20311;-74
2024/01/04 12:43:57;;;;;;;8.60;5.83;;;7.40;99.90;;;;;;5032097;28;20311;-74
2024/01/04 12:46:46;;;;;;;10.10;5.60;;;7.40;99.90;;;;;;5031796;28;20192;-72
2024/01/04 12:49:36;;;;;;;12.40;6.13;;;7.50;99.90;;;;;;5031548;28;20196;-76
2024/01/04 12:52:24;;;;;;;7.87;5.97;;;7.60;99.90;;;;;;5031505;28;20202;-76
2024/01/04 12:55:11;;;;;;;8.83;6.70;;;7.60;99.90;;;;;;5032345;28;20250;-72
2024/01/04 12:57:59;;;;;;;9.70;6.20;;;7.60;99.90;;;;;;5033022;28;20693;-73
2024/01/04 13:00:46;;;;;;;12.87;6.50;;;7.70;99.90;;;;;;5032006;28;20224;-73
2024/01/04 13:03:33;;;;;;;14.43;7.27;;;7.70;99.90;;;;;;5032076;28;20221;-74
2024/01/04 13:06:21;;;;;;;12.10;7.67;;;7.80;99.90;;;;;;5035745;28;20258;-75
2024/01/04 13:09:10;;;;;;;10.57;6.67;;;7.70;99.90;;;;;;5034767;28;20208;-72
2024/01/04 13:11:57;;;;;;;10.50;7.40;;;7.70;99.90;;;;;;5035092;28;20216;-76
2024/01/04 13:14:45;;;;;;;10.13;6.77;;;7.80;99.90;;;;;;5035251;28;20202;-72
2024/01/04 13:17:33;;;;;;;10.27;7.17;;;7.80;99.90;;;;;;5035876;28;20262;-72
2024/01/04 13:20:21;;;;;;;10.73;6.70;;;7.80;99.90;;;;;;5034538;28;20199;-74
2024/01/04 13:23:08;;;;;;;9.53;7.33;;;7.80;99.90;;;;;;5036264;28;20197;-72
2024/01/04 13:25:57;;;;;;;8.17;6.60;;;7.70;99.90;;;;;;5035699;28;20709;-74
2024/01/04 13:28:44;;;;;;;11.10;6.97;;;7.70;99.90;;;;;;5034786;28;20573;-74
2024/01/04 13:31:31;;;;;;;10.07;6.67;;;7.70;99.90;;;;;;5034789;28;20200;-74
2024/01/04 13:34:19;;;;;;;10.53;6.63;;;7.70;99.90;;;;;;5033834;28;20208;-74
2024/01/04 13:37:07;;;;;;;9.33;6.30;;;7.70;99.90;;;;;;5035240;28;20203;-72
2024/01/04 13:39:55;;;;;;;15.10;5.63;;;7.60;99.90;;;;;;5034340;28;20318;-76
2024/01/04 13:42:45;;;;;;;7.60;5.07;;;7.60;99.90;;;;;;5035061;28;20209;-73
2024/01/04 13:45:32;;;;;;;7.07;4.57;;;7.60;99.90;;;;;;5034488;28;20196;-73
2024/01/04 13:48:19;;;;;;;5.57;4.00;;;7.50;99.90;;;;;;5034602;28;20238;-75
2024/01/04 13:51:07;;;;;;;5.20;3.93;;;7.50;99.90;;;;;;5034395;28;20230;-74
2024/01/04 13:53:55;;;;;;;5.30;3.50;;;7.40;99.90;;;;;;5034449;28;20680;-71
2024/01/04 13:56:42;;;;;;;4.73;3.40;;;7.40;99.90;;;;;;5034925;28;20222;-72
2024/01/04 13:59:30;;;;;;;5.13;3.60;;;7.30;99.90;;;;;;5035279;28;20632;-74
2024/01/04 14:02:18;;;;;;;4.40;3.23;;;7.20;99.90;;;;;;5034361;28;20197;-74
2024/01/04 14:05:08;;;;;;;5.70;3.93;;;7.20;99.90;;;;;;5035109;28;20229;-74
2024/01/04 14:07:56;;;;;;;5.63;3.83;;;7.10;99.90;;;;;;5034254;28;20679;-75
2024/01/04 14:10:43;;;;;;;5.50;3.80;;;7.10;99.90;;;;;;5034624;28;20774;-72
2024/01/04 14:13:31;;;;;;;6.23;4.17;;;7.10;99.90;;;;;;5034402;28;20210;-78
2024/01/04 14:16:19;;;;;;;5.27;3.70;;;7.00;99.90;;;;;;5033743;28;20280;-71
2024/01/04 14:19:06;;;;;;;7.60;4.33;;;7.00;99.90;;;;;;5033129;28;20193;-71
2024/01/04 14:21:54;;;;;;;5.50;4.03;;;7.00;99.90;;;;;;5035589;28;20230;-71
2024/01/04 14:24:42;;;;;;;6.60;4.23;;;7.00;99.90;;;;;;5034445;28;20679;-71
2024/01/04 14:27:30;;;;;;;6.30;4.13;;;7.00;99.90;;;;;;5033269;28;20217;-72
2024/01/04 14:30:17;;;;;;;6.53;4.57;;;7.00;99.90;;;;;;5034326;28;20286;-70
2024/01/04 14:33:05;;;;;;;7.00;4.43;;;6.90;99.90;;;;;;5034091;28;20314;-72
2024/01/04 14:35:56;;;;;;;7.87;4.60;;;7.00;99.90;;;;;;5032657;28;20200;-73
2024/01/04 14:38:44;;;;;;;7.27;4.53;;;7.00;99.90;;;;;;5034113;28;20258;-73
2024/01/04 14:41:31;;;;;;;6.93;4.73;;;7.00;99.90;;;;;;5033533;28;20289;-73